createdAt,value
2022-11-03T00:01:31.552Z,2.90
2022-11-03T00:04:19.737Z,2.90
2022-11-03T00:07:05.091Z,3.10
2022-11-03T00:09:50.396Z,3.00
2022-11-03T00:12:35.180Z,3.30
2022-11-03T00:15:20.292Z,2.60
2022-11-03T00:18:05.226Z,2.60
2022-11-03T00:21:05.250Z,2.50
2022-11-03T00:23:50.749Z,3.23
2022-11-03T00:26:36.787Z,2.80
2022-11-03T00:29:22.309Z,2.80
2022-11-03T00:32:07.105Z,3.00
2022-11-03T00:34:52.070Z,2.87
2022-11-03T00:37:36.825Z,2.73
2022-11-03T00:40:21.749Z,2.80
2022-11-03T00:43:06.840Z,2.83
2022-11-03T00:45:52.889Z,2.50
2022-11-03T00:48:38.653Z,2.50
2022-11-03T00:51:30.555Z,2.20
2022-11-03T00:54:15.470Z,2.90
2022-11-03T00:57:00.358Z,2.57
2022-11-03T00:59:45.191Z,2.77
2022-11-03T01:02:30.248Z,2.40
2022-11-03T01:05:34.418Z,2.83
2022-11-03T01:08:21.314Z,2.70
2022-11-03T01:11:31.093Z,2.90
2022-11-03T01:14:16.594Z,2.40
2022-11-03T01:17:05.545Z,2.70
2022-11-03T01:19:51.354Z,2.53
2022-11-03T01:22:36.508Z,2.30
2022-11-03T01:25:21.508Z,2.30
2022-11-03T01:28:06.404Z,2.63
2022-11-03T01:30:51.229Z,2.83
2022-11-03T01:33:36.008Z,2.50
2022-11-03T01:36:21.490Z,2.50
2022-11-03T01:39:06.450Z,2.30
2022-11-03T01:41:52.367Z,2.40
2022-11-03T01:44:41.905Z,2.33
2022-11-03T01:47:31.932Z,2.40
2022-11-03T01:50:20.017Z,2.40
2022-11-03T01:53:05.372Z,2.50
2022-11-03T01:55:51.806Z,2.23
2022-11-03T01:58:40.986Z,2.70
2022-11-03T02:01:26.807Z,2.20
2022-11-03T02:04:29.880Z,2.50
2022-11-03T02:07:25.060Z,2.00
2022-11-03T02:10:10.636Z,2.27
2022-11-03T02:12:55.892Z,2.20
2022-11-03T02:15:41.173Z,2.33
2022-11-03T02:18:31.717Z,2.30
2022-11-03T02:21:29.411Z,2.20
2022-11-03T02:24:40.341Z,2.40
2022-11-03T02:27:25.684Z,2.00
2022-11-03T02:30:11.650Z,2.40
2022-11-03T02:33:03.422Z,2.37
2022-11-03T02:35:57.774Z,2.20
2022-11-03T02:39:01.422Z,2.30
2022-11-03T02:41:48.778Z,2.07
2022-11-03T02:44:34.751Z,2.00
2022-11-03T02:47:22.642Z,2.20
2022-11-03T02:50:10.498Z,2.13
2022-11-03T02:52:55.786Z,2.40
2022-11-03T02:55:52.071Z,2.10
2022-11-03T02:58:51.302Z,2.33
2022-11-03T03:01:47.419Z,2.10
2022-11-03T03:04:40.663Z,2.30
2022-11-03T03:07:31.061Z,2.13
2022-11-03T03:10:19.806Z,2.10
2022-11-03T03:13:07.253Z,2.00
2022-11-03T03:16:11.939Z,2.40
2022-11-03T03:19:14.956Z,2.23
2022-11-03T03:22:09.934Z,2.20
2022-11-03T03:25:07.350Z,2.33
2022-11-03T03:28:00.478Z,2.10
2022-11-03T03:30:47.206Z,2.13
2022-11-03T03:33:34.903Z,2.27
2022-11-03T03:36:22.428Z,2.00
2022-11-03T03:39:10.478Z,2.07
2022-11-03T03:41:57.809Z,1.73
2022-11-03T03:44:46.066Z,2.17
2022-11-03T03:47:33.880Z,2.33
2022-11-03T03:50:20.272Z,1.70
2022-11-03T03:53:07.659Z,2.00
2022-11-03T03:55:53.058Z,2.13
2022-11-03T03:58:38.101Z,1.90
2022-11-03T04:01:23.234Z,1.77
2022-11-03T04:04:08.655Z,1.77
2022-11-03T04:07:13.862Z,2.33
2022-11-03T04:09:59.241Z,1.80
2022-11-03T04:13:03.978Z,2.13
2022-11-03T04:15:49.069Z,2.03
2022-11-03T04:18:53.062Z,1.90
2022-11-03T04:21:57.126Z,1.67
2022-11-03T04:24:46.390Z,2.13
2022-11-03T04:27:37.093Z,1.77
2022-11-03T04:30:25.004Z,1.73
2022-11-03T04:33:23.124Z,1.77
2022-11-03T04:36:19.394Z,1.93
2022-11-03T04:39:16.585Z,2.00
2022-11-03T04:42:02.134Z,1.83
2022-11-03T04:44:47.870Z,2.00
2022-11-03T04:47:32.645Z,1.80
2022-11-03T04:50:20.424Z,1.80
2022-11-03T04:53:10.486Z,1.90
2022-11-03T04:55:55.390Z,1.70
2022-11-03T04:58:40.662Z,1.97
2022-11-03T05:01:25.817Z,1.53
2022-11-03T05:04:14.115Z,1.70
2022-11-03T05:06:59.356Z,1.63
2022-11-03T05:09:44.599Z,1.90
2022-11-03T05:12:30.262Z,1.60
2022-11-03T05:15:31.815Z,2.17
2022-11-03T05:18:25.260Z,1.70
2022-11-03T05:21:16.970Z,1.70
2022-11-03T05:24:09.129Z,1.70
2022-11-03T05:26:56.425Z,1.60
2022-11-03T05:29:41.978Z,1.57
2022-11-03T05:32:33.359Z,1.60
2022-11-03T05:35:22.694Z,1.53
2022-11-03T05:38:16.662Z,1.40
2022-11-03T05:41:01.696Z,1.80
2022-11-03T05:43:54.114Z,1.50
2022-11-03T05:46:38.934Z,1.97
2022-11-03T05:49:24.382Z,1.50
2022-11-03T05:52:22.586Z,1.83
2022-11-03T05:55:26.751Z,2.03
2022-11-03T05:58:21.946Z,1.73
2022-11-03T06:01:34.049Z,2.03
2022-11-03T06:04:24.974Z,1.60
2022-11-03T06:07:23.742Z,1.47
2022-11-03T06:10:45.141Z,1.40
2022-11-03T06:13:34.276Z,1.90
2022-11-03T06:16:46.442Z,1.60
2022-11-03T06:19:49.887Z,2.03
2022-11-03T06:22:38.687Z,1.70
2022-11-03T06:25:29.252Z,1.50
2022-11-03T06:28:21.432Z,1.57
2022-11-03T06:31:24.003Z,1.50
2022-11-03T06:34:34.535Z,1.50
2022-11-03T06:37:31.098Z,1.60
2022-11-03T06:40:16.398Z,3.80
2022-11-03T06:43:11.038Z,3.77
2022-11-03T06:46:05.412Z,2.77
2022-11-03T06:48:53.426Z,3.37
2022-11-03T06:51:38.575Z,3.40
2022-11-03T06:54:24.361Z,3.53
2022-11-03T06:57:14.583Z,3.53
2022-11-03T07:00:13.312Z,3.67
2022-11-03T07:03:33.125Z,3.33
2022-11-03T07:06:25.441Z,3.90
2022-11-03T07:09:21.307Z,3.10
2022-11-03T07:12:16.948Z,2.70
2022-11-03T07:15:01.973Z,3.13
2022-11-03T07:17:47.288Z,2.97
2022-11-03T07:20:32.507Z,2.60
2022-11-03T07:23:21.230Z,2.77
2022-11-03T07:26:11.101Z,3.13
2022-11-03T07:28:56.004Z,2.73
2022-11-03T07:31:40.967Z,2.60
2022-11-03T07:34:31.990Z,2.07
2022-11-03T07:37:20.600Z,2.43
2022-11-03T07:40:12.160Z,2.80
2022-11-03T07:43:09.436Z,2.70
2022-11-03T07:46:00.518Z,2.40
2022-11-03T07:48:47.871Z,2.33
2022-11-03T07:51:37.416Z,2.50
2022-11-03T07:54:26.919Z,2.60
2022-11-03T07:57:30.424Z,2.70
2022-11-03T08:00:22.614Z,2.13
2022-11-03T08:03:39.598Z,2.60
2022-11-03T08:06:24.470Z,2.17
2022-11-03T08:09:09.751Z,2.37
2022-11-03T08:11:54.632Z,1.93
2022-11-03T08:14:39.489Z,2.33
2022-11-03T08:17:24.636Z,2.20
2022-11-03T08:20:10.186Z,2.70
2022-11-03T08:23:24.197Z,2.47
2022-11-03T08:26:00.674Z,2.60
2022-11-03T08:28:45.942Z,1.83
2022-11-03T08:31:30.951Z,2.07
2022-11-03T08:34:16.379Z,1.97
2022-11-03T08:37:01.835Z,1.90
2022-11-03T08:39:47.055Z,1.90
2022-11-03T08:42:32.337Z,1.93
2022-11-03T08:45:17.767Z,2.20
2022-11-03T08:48:03.237Z,1.90
2022-11-03T08:50:50.458Z,1.83
2022-11-03T08:53:35.925Z,1.90
2022-11-03T08:56:22.557Z,2.10
2022-11-03T08:59:08.211Z,1.70
2022-11-03T09:01:53.273Z,1.80
2022-11-03T09:04:38.578Z,2.20
2022-11-03T09:07:24.222Z,1.67
2022-11-03T09:13:02.667Z,1.93
2022-11-03T09:15:47.593Z,1.87
2022-11-03T09:18:34.009Z,1.80
2022-11-03T09:21:19.406Z,1.80
2022-11-03T09:24:04.806Z,2.00
2022-11-03T09:26:50.005Z,1.60
2022-11-03T09:29:58.378Z,2.00
2022-11-03T09:32:40.826Z,1.80
2022-11-03T09:35:26.082Z,1.70
2022-11-03T09:38:10.889Z,1.50
2022-11-03T09:40:56.321Z,1.93
2022-11-03T09:43:41.759Z,1.50
2022-11-03T09:46:29.554Z,1.90
2022-11-03T09:49:15.963Z,1.50
2022-11-03T09:52:03.178Z,1.80
2022-11-03T09:54:49.010Z,1.47
2022-11-03T09:57:33.918Z,1.83
2022-11-03T10:00:20.952Z,1.83
2022-11-03T10:03:06.647Z,1.50
2022-11-03T10:05:52.514Z,1.60
2022-11-03T10:08:39.856Z,1.63
2022-11-03T10:11:24.898Z,1.80
2022-11-03T10:14:13.443Z,1.57
2022-11-03T10:17:02.598Z,1.83
2022-11-03T10:19:52.048Z,1.73
2022-11-03T10:22:41.007Z,1.87
2022-11-03T10:25:40.696Z,1.80
2022-11-03T10:28:29.246Z,1.60
2022-11-03T10:31:21.563Z,1.70
2022-11-03T10:34:27.222Z,1.80
2022-11-03T10:37:23.823Z,1.93
2022-11-03T10:40:47.855Z,1.50
2022-11-03T10:43:33.537Z,2.00
2022-11-03T10:46:51.711Z,1.57
2022-11-03T10:49:32.130Z,2.17
2022-11-03T10:52:24.750Z,2.03
2022-11-03T10:55:11.205Z,1.50
2022-11-03T10:57:58.066Z,1.77
2022-11-03T11:00:43.586Z,1.70
2022-11-03T11:03:28.859Z,1.70
2022-11-03T11:06:24.786Z,1.30
2022-11-03T11:09:12.899Z,1.50
2022-11-03T11:12:14.090Z,1.40
2022-11-03T11:15:02.456Z,1.80
2022-11-03T11:17:49.502Z,1.77
2022-11-03T11:20:36.743Z,1.53
2022-11-03T11:23:27.804Z,1.83
2022-11-03T11:26:25.078Z,1.80
2022-11-03T11:29:10.177Z,1.50
2022-11-03T11:31:55.273Z,1.50
2022-11-03T11:34:40.422Z,1.33
2022-11-03T11:37:25.508Z,1.47
2022-11-03T11:40:42.857Z,1.53
2022-11-03T11:43:28.035Z,1.40
2022-11-03T11:46:39.915Z,1.33
2022-11-03T11:49:25.026Z,1.37
2022-11-03T11:52:15.241Z,1.53
2022-11-03T11:55:00.567Z,1.50
2022-11-03T11:57:46.438Z,1.40
2022-11-03T12:00:34.102Z,1.77
2022-11-03T12:03:25.686Z,1.27
2022-11-03T12:06:13.494Z,1.70
2022-11-03T12:09:13.765Z,1.57
2022-11-03T12:12:08.086Z,1.60
2022-11-03T12:14:53.782Z,1.50
2022-11-03T12:17:38.764Z,1.50
2022-11-03T12:20:46.676Z,1.40
2022-11-03T12:23:44.992Z,1.63
2022-11-03T12:26:33.266Z,1.77
2022-11-03T12:29:18.579Z,1.30
2022-11-03T12:32:03.537Z,1.20
2022-11-03T12:34:48.352Z,1.40
2022-11-03T12:37:33.457Z,1.47
2022-11-03T12:40:18.533Z,1.07
2022-11-03T12:43:03.880Z,1.40
2022-11-03T12:45:49.243Z,1.40
2022-11-03T12:48:34.274Z,1.20
2022-11-03T12:51:21.928Z,1.20
2022-11-03T12:54:06.881Z,1.27
2022-11-03T12:56:53.209Z,1.50
2022-11-03T12:59:38.502Z,1.23
2022-11-03T13:02:23.545Z,1.30
2022-11-03T13:05:09.293Z,1.00
2022-11-03T13:07:54.291Z,1.30
2022-11-03T13:10:40.701Z,1.23
2022-11-03T13:13:26.909Z,1.40
2022-11-03T13:16:11.850Z,1.40
2022-11-03T13:18:57.239Z,1.40
2022-11-03T13:21:42.352Z,1.40
2022-11-03T13:24:27.494Z,1.27
2022-11-03T13:27:12.647Z,1.37
2022-11-03T13:29:57.773Z,1.00
2022-11-03T13:32:42.641Z,1.40
2022-11-03T13:35:28.411Z,0.90
2022-11-03T13:38:13.294Z,1.37
2022-11-03T13:41:03.566Z,1.47
2022-11-03T13:43:52.488Z,1.40
2022-11-03T13:46:37.839Z,1.27
2022-11-03T13:52:29.376Z,1.43
2022-11-03T14:01:24.897Z,1.50
2022-11-03T14:07:15.628Z,1.47
2022-11-03T14:10:03.713Z,1.20
2022-11-03T14:12:49.620Z,1.03
2022-11-03T14:15:34.789Z,1.17
2022-11-03T14:18:19.640Z,1.50
2022-11-03T14:21:04.698Z,1.37
2022-11-03T14:23:50.002Z,1.53
2022-11-03T14:26:42.347Z,1.03
2022-11-03T14:29:28.242Z,1.10
2022-11-03T14:32:13.214Z,1.40
2022-11-03T14:34:58.829Z,1.27
2022-11-03T14:37:45.845Z,1.13
2022-11-03T14:40:49.747Z,1.60
2022-11-03T14:43:35.338Z,1.30
2022-11-03T14:46:20.650Z,1.40
2022-11-03T14:49:05.926Z,1.40
2022-11-03T14:51:51.107Z,1.60
2022-11-03T14:54:36.484Z,1.23
2022-11-03T14:57:21.322Z,1.30
2022-11-03T15:00:07.121Z,1.80
2022-11-03T15:02:52.391Z,1.10
2022-11-03T15:05:44.815Z,1.20
2022-11-03T15:08:32.486Z,1.37
2022-11-03T15:11:19.341Z,1.30
2022-11-03T15:14:06.382Z,1.40
2022-11-03T15:16:53.203Z,1.20
2022-11-03T15:19:40.164Z,1.47
2022-11-03T15:25:36.309Z,1.20
2022-11-03T15:28:23.378Z,1.30
2022-11-03T15:31:10.302Z,1.20
2022-11-03T15:33:57.151Z,1.57
2022-11-03T15:36:44.036Z,1.47
2022-11-03T15:39:31.138Z,1.00
2022-11-03T15:42:18.581Z,1.60
2022-11-03T15:45:06.182Z,1.30
2022-11-03T15:47:58.139Z,1.17
2022-11-03T15:50:45.279Z,1.80
2022-11-03T15:53:32.525Z,1.20
2022-11-03T15:56:19.354Z,1.57
2022-11-03T15:59:06.177Z,1.50
2022-11-03T16:01:59.487Z,1.50
2022-11-03T16:04:50.665Z,1.57
2022-11-03T16:07:37.574Z,1.43
2022-11-03T16:10:24.461Z,1.27
2022-11-03T16:13:11.316Z,1.30
2022-11-03T16:15:58.355Z,1.30
2022-11-03T16:18:45.920Z,1.50
2022-11-03T16:21:32.747Z,1.47
2022-11-03T16:24:19.601Z,1.63
2022-11-03T16:27:06.511Z,1.47
2022-11-03T16:29:55.677Z,1.57
2022-11-03T16:32:42.539Z,1.30
2022-11-03T16:35:29.777Z,1.63
2022-11-03T16:38:16.866Z,1.80
2022-11-03T16:41:03.707Z,1.70
2022-11-03T16:43:50.625Z,1.60
2022-11-03T16:46:37.565Z,1.70
2022-11-03T16:49:24.374Z,2.20
2022-11-03T16:52:11.251Z,2.23
2022-11-03T16:54:59.215Z,2.67
2022-11-03T16:57:46.780Z,3.00
2022-11-03T17:00:33.619Z,3.37
2022-11-03T17:03:20.530Z,2.43
2022-11-03T17:06:07.855Z,3.33
2022-11-03T17:08:54.723Z,3.80
2022-11-03T17:11:41.559Z,4.23
2022-11-03T17:14:28.500Z,4.17
2022-11-03T17:17:15.475Z,3.83
2022-11-03T17:20:02.369Z,4.53
2022-11-03T17:22:49.270Z,5.87
2022-11-03T17:25:36.218Z,6.57
2022-11-03T17:28:23.150Z,6.30
2022-11-03T17:31:10.372Z,6.63
2022-11-03T17:33:57.591Z,13.63
2022-11-03T17:36:44.736Z,17.17
2022-11-03T17:39:34.320Z,14.40
2022-11-03T17:42:25.948Z,17.70
2022-11-03T17:45:15.058Z,20.17
2022-11-03T17:48:02.099Z,17.93
2022-11-03T17:50:50.554Z,19.37
2022-11-03T17:53:40.562Z,22.57
2022-11-03T17:56:30.559Z,23.33
2022-11-03T17:59:18.183Z,23.20
2022-11-03T18:02:14.993Z,22.87
2022-11-03T18:05:21.470Z,23.63
2022-11-03T18:08:11.322Z,21.90
2022-11-03T18:10:58.401Z,21.67
2022-11-03T18:13:45.587Z,22.97
2022-11-03T18:16:34.713Z,21.50
2022-11-03T18:19:21.968Z,21.20
2022-11-03T18:22:11.517Z,22.07
2022-11-03T18:24:58.623Z,22.40
2022-11-03T18:27:46.304Z,21.47
2022-11-03T18:30:34.959Z,22.50
2022-11-03T18:33:32.391Z,22.70
2022-11-03T18:36:20.771Z,21.00
2022-11-03T18:39:13.074Z,23.33
2022-11-03T18:42:00.367Z,25.87
2022-11-03T18:44:48.853Z,25.10
2022-11-03T18:47:36.609Z,23.97
2022-11-03T18:50:23.656Z,25.83
2022-11-03T18:53:15.507Z,23.77
2022-11-03T18:56:12.363Z,25.37
2022-11-03T18:58:59.846Z,22.90
2022-11-03T19:01:51.494Z,22.73
2022-11-03T19:04:39.033Z,23.90
2022-11-03T19:07:35.807Z,22.97
2022-11-03T19:10:24.934Z,20.73
2022-11-03T19:13:20.313Z,21.47
2022-11-03T19:16:17.079Z,19.53
2022-11-03T19:19:10.148Z,19.40
2022-11-03T19:21:59.957Z,19.53
2022-11-03T19:24:47.846Z,18.90
2022-11-03T19:27:38.886Z,17.63
2022-11-03T19:30:27.331Z,17.40
2022-11-03T19:33:24.149Z,16.20
2022-11-03T19:36:11.170Z,17.77
2022-11-03T19:39:01.299Z,16.40
2022-11-03T19:42:07.389Z,17.63
2022-11-03T19:44:59.508Z,15.67
2022-11-03T19:48:22.675Z,15.47
2022-11-03T19:51:00.101Z,27.03
2022-11-03T19:53:48.396Z,59.83
2022-11-03T19:56:35.518Z,63.90
2022-11-03T19:59:22.530Z,77.83
2022-11-03T20:02:10.545Z,71.73
2022-11-03T20:04:57.593Z,61.63
2022-11-03T20:07:44.528Z,61.00
2022-11-03T20:10:34.925Z,53.33
2022-11-03T20:13:26.177Z,47.33
2022-11-03T20:16:15.725Z,48.23
2022-11-03T20:19:03.365Z,46.27
2022-11-03T20:21:51.172Z,48.27
2022-11-03T20:24:38.057Z,39.53
2022-11-03T20:27:24.969Z,38.90
2022-11-03T20:30:20.471Z,36.90
2022-11-03T20:33:13.680Z,33.57
2022-11-03T20:36:02.005Z,35.10
2022-11-03T20:38:53.349Z,40.63
2022-11-03T20:41:49.950Z,39.07
2022-11-03T20:44:36.825Z,37.00
2022-11-03T20:47:23.822Z,35.57
2022-11-03T20:50:12.811Z,36.20
2022-11-03T20:52:59.748Z,34.00
2022-11-03T20:55:47.498Z,32.13
2022-11-03T20:58:34.369Z,31.30
2022-11-03T21:01:27.910Z,29.37
2022-11-03T21:04:17.619Z,28.60
2022-11-03T21:07:05.329Z,27.67
2022-11-03T21:09:52.196Z,27.07
2022-11-03T21:12:39.250Z,27.83
2022-11-03T21:16:10.420Z,26.60
2022-11-03T21:19:10.043Z,24.43
2022-11-03T21:21:56.963Z,21.67
2022-11-03T21:24:43.981Z,21.17
2022-11-03T21:27:30.855Z,20.33
2022-11-03T21:30:18.204Z,19.50
2022-11-03T21:33:05.066Z,18.90
2022-11-03T21:35:52.237Z,19.57
2022-11-03T21:38:39.150Z,18.20
2022-11-03T21:41:44.720Z,18.13
2022-11-03T21:44:31.593Z,20.30
2022-11-03T21:47:21.134Z,24.27
2022-11-03T21:50:08.307Z,28.53
2022-11-03T21:52:55.134Z,28.20
2022-11-03T21:55:42.037Z,30.87
2022-11-03T21:58:28.825Z,47.03
2022-11-03T22:01:15.852Z,38.40
2022-11-03T22:04:02.858Z,59.60
2022-11-03T22:06:50.461Z,84.33
2022-11-03T22:09:37.379Z,95.40
2022-11-03T22:12:24.293Z,103.47
2022-11-03T22:15:30.055Z,101.27
2022-11-03T22:18:16.931Z,135.60
2022-11-03T22:21:22.403Z,169.23
2022-11-03T22:24:27.751Z,189.67
2022-11-03T22:27:14.673Z,216.53
2022-11-03T22:30:20.608Z,193.30
2022-11-03T22:33:07.418Z,163.23
2022-11-03T22:36:21.567Z,138.83
2022-11-03T22:39:27.463Z,107.10
2022-11-03T22:42:33.275Z,65.33
2022-11-03T22:45:39.145Z,58.97
2022-11-03T22:48:27.278Z,53.80
2022-11-03T22:51:16.620Z,46.87
2022-11-03T22:54:12.517Z,37.77
2022-11-03T22:56:59.423Z,36.80
2022-11-03T22:59:46.246Z,32.37
2022-11-03T23:02:33.127Z,28.47
2022-11-03T23:05:20.278Z,24.70
2022-11-03T23:08:07.170Z,22.63
2022-11-03T23:10:53.987Z,21.63
2022-11-03T23:13:40.844Z,20.47
2022-11-03T23:16:30.527Z,20.07
2022-11-03T23:19:35.966Z,18.10
2022-11-03T23:22:22.862Z,16.50
2022-11-03T23:25:09.699Z,16.67
2022-11-03T23:27:56.959Z,15.97
2022-11-03T23:30:44.299Z,15.10
2022-11-03T23:33:31.769Z,15.20
2022-11-03T23:36:18.789Z,13.97
2022-11-03T23:39:06.587Z,14.10
2022-11-03T23:41:53.397Z,15.40
2022-11-03T23:44:58.535Z,14.17
2022-11-03T23:48:04.498Z,14.27
2022-11-03T23:50:52.629Z,13.93
2022-11-03T23:53:39.513Z,14.23
2022-11-03T23:56:48.726Z,13.33
2022-11-03T23:59:35.581Z,12.77
